Startpagina
METAR-TAF:

METAR-TAF

Vliegvelden :

Chugiak, Alaska, Verenigde Staten

breedte: 61-25N, lengte: 149-31W, hoogte: 29 m

Actueel weer

Dit bericht is 20 minuten geleden gemaakt, om 12:56 UTC
Wind 5 kt uit het noordoosten
Temperatuur 12°C
Vochtigheid 94%
Druk 1017 hPa
Zicht: 16.1 km
Weinig wolken op 4300 ft
Geheel bewolkt op 6000 ft

METAR: PABV 171256Z AUTO 05005KT 10SM FEW043 OVC060 12/11 A3003 RMK AO2 SLP176 T01220106 PNO $

Tijdstip: 05:16 (13:16 UTC)


TAF: ontbreekt

Waarnemingen en weersverwachtingen van meer dan 4000 vliegvelden (METAR en TAF).

De beschikbare stations zijn de gele en rode punten op de kaart.

Ga met uw muis naar het station om de naam te zien.

Klik dan om waarnemingen en weersverwachtingen te zien.

kaart wijzigen: klik op de groene knoppen met een zwart kruis om in te zoomen, op de groene knop met een streepje om uit te zoomen of op de groene pijlen voor aangrenzende kaarten.


METAR-TAF: